Migrate, Kentucky
Current Conditions -  °F | °C
As of 7:54 AM on Saturday 25 Oct 2014 (Local Time) from KLEX Reporting Station
Clear Clear  
Wind Chill: 44°   Ceiling: Unl
Heat Index: 47°   Visibility: 8mi
Dew Point: 43°   Wind: 7mph
Humidity: 86%   Direction: 170°S
Pressure: 30.05"   Gusts: NA
Location:  38.0638°N, 84.5027°W
Report Text: KLEX 251154Z 17006KT 8SM CLR 08/06 A3005 RMK AO2 SLP173 T00830061 10094 20067 52001
Loading
Personal Weather Stations






























Interactive Weather Map
Tropical Storm Tracking
New forecast layout! Learn more

10-Day Weather Forecast

Advertisements
Track Severe Weather on mobile